Time;durP1;ratioP1;P1;durP2;ratioP2;P2;SDS_P1;SDS_P2;PMS_P1;PMS_P2;Temp;Humidity;BMP_temperature;BMP_pressure;BME280_temperature;BME280_humidity;BME280_pressure;Samples;Min_cycle;Max_cycle;Signal;HPM_P1;HPM_P2
2023/12/12 00:00:16;;;;;;;7.82;1.70;;;29.80;99.90;;;;;;4992703;28;20198;-70
2023/12/12 00:02:44;;;;;;;15.50;2.50;;;31.30;99.90;;;;;;4993157;28;20527;-70
2023/12/12 00:05:13;;;;;;;10.43;1.88;;;31.20;99.90;;;;;;4993457;28;20224;-71
2023/12/12 00:07:41;;;;;;;9.60;2.38;;;30.80;99.90;;;;;;4992868;28;20191;-69
2023/12/12 00:10:08;;;;;;;12.20;2.50;;;30.30;99.90;;;;;;4993201;28;20206;-69
2023/12/12 00:12:36;;;;;;;12.00;2.77;;;30.00;99.90;;;;;;4993423;28;20210;-69
2023/12/12 00:15:03;;;;;;;12.33;2.10;;;29.60;99.90;;;;;;4992767;28;20203;-69
2023/12/12 00:17:31;;;;;;;7.82;1.98;;;29.40;99.90;;;;;;4993121;28;20286;-70
2023/12/12 00:19:58;;;;;;;16.83;2.55;;;29.30;99.90;;;;;;4992800;28;20189;-70
2023/12/12 00:22:26;;;;;;;8.60;2.00;;;29.40;99.90;;;;;;4992968;28;20174;-68
2023/12/12 00:24:53;;;;;;;11.52;2.40;;;29.50;99.90;;;;;;4993176;28;20238;-70
2023/12/12 00:27:20;;;;;;;12.32;3.03;;;29.90;99.90;;;;;;4993213;28;20612;-71
2023/12/12 00:29:48;;;;;;;10.32;2.60;;;30.50;99.90;;;;;;4991920;28;20183;-70
2023/12/12 00:32:16;;;;;;;13.10;2.50;;;30.70;99.90;;;;;;4993054;28;20202;-72
2023/12/12 00:34:43;;;;;;;15.13;2.00;;;30.20;99.90;;;;;;4992938;28;20261;-70
2023/12/12 00:37:10;;;;;;;10.27;2.58;;;29.90;99.90;;;;;;4992042;28;20179;-68
2023/12/12 00:39:41;;;;;;;8.18;1.65;;;29.70;99.90;;;;;;4992570;28;20261;-71
2023/12/12 00:42:08;;;;;;;8.87;1.77;;;29.70;99.90;;;;;;4992727;28;20229;-69
2023/12/12 00:44:36;;;;;;;7.60;1.98;;;29.70;99.90;;;;;;4992299;28;20229;-71
2023/12/12 00:47:05;;;;;;;6.25;2.22;;;29.90;99.90;;;;;;4975337;28;20178;-69
2023/12/12 00:49:32;;;;;;;10.37;1.87;;;29.80;99.90;;;;;;4992363;28;20199;-69
2023/12/12 00:51:59;;;;;;;10.60;1.88;;;29.70;99.90;;;;;;4972586;28;20213;-72
2023/12/12 00:54:27;;;;;;;8.18;1.40;;;29.80;99.90;;;;;;4973119;28;20246;-71
2023/12/12 00:56:54;;;;;;;8.40;1.83;;;29.80;99.90;;;;;;4972436;28;20176;-69
2023/12/12 00:59:21;;;;;;;8.02;1.65;;;30.10;99.90;;;;;;4974303;28;20187;-71
2023/12/12 01:01:49;;;;;;;9.88;1.88;;;30.20;99.90;;;;;;4993501;28;20269;-70
2023/12/12 01:04:16;;;;;;;10.20;1.75;;;30.70;99.90;;;;;;4993537;28;20218;-70
2023/12/12 01:06:43;;;;;;;8.95;1.88;;;30.70;99.90;;;;;;4992791;28;20170;-73
2023/12/12 01:09:11;;;;;;;13.73;2.08;;;30.80;99.90;;;;;;4992835;28;20189;-72
2023/12/12 01:11:38;;;;;;;5.75;1.67;;;31.00;99.90;;;;;;4992472;28;20182;-71
2023/12/12 01:14:05;;;;;;;8.18;1.90;;;31.10;99.90;;;;;;4992364;28;20191;-70
2023/12/12 01:16:33;;;;;;;7.82;1.60;;;31.10;99.90;;;;;;4992388;28;20278;-70
2023/12/12 01:19:01;;;;;;;8.35;1.77;;;31.10;99.90;;;;;;4992440;28;20213;-69
2023/12/12 01:21:29;;;;;;;7.22;1.80;;;30.50;99.90;;;;;;4991617;28;20209;-69
2023/12/12 01:23:58;;;;;;;5.75;1.67;;;30.20;99.90;;;;;;4991878;28;20246;-69
2023/12/12 01:26:26;;;;;;;9.52;1.80;;;30.10;99.90;;;;;;4992056;28;20182;-71
2023/12/12 01:28:54;;;;;;;8.20;1.92;;;29.90;99.90;;;;;;4991770;28;20183;-72
2023/12/12 01:31:21;;;;;;;10.05;1.80;;;30.00;99.90;;;;;;4991831;28;20221;-71
2023/12/12 01:33:49;;;;;;;5.22;1.23;;;30.00;99.90;;;;;;4991197;28;20186;-72
2023/12/12 01:36:16;;;;;;;8.93;1.90;;;30.30;99.90;;;;;;4990572;28;20256;-72
2023/12/12 01:38:45;;;;;;;9.65;1.73;;;30.30;99.90;;;;;;4973901;28;20183;-73
2023/12/12 01:41:12;;;;;;;7.80;1.50;;;30.70;99.90;;;;;;4991411;28;20317;-70
2023/12/12 01:43:40;;;;;;;10.35;1.65;;;31.30;99.90;;;;;;4990950;28;20207;-69
2023/12/12 01:46:09;;;;;;;9.02;1.80;;;32.30;99.90;;;;;;4991366;28;20222;-70
2023/12/12 01:48:36;;;;;;;6.50;1.55;;;33.10;99.90;;;;;;4991629;28;20656;-71
2023/12/12 01:51:05;;;;;;;9.88;1.85;;;32.70;99.90;;;;;;4990950;28;20269;-74
2023/12/12 01:53:37;;;;;;;9.02;1.90;;;32.30;99.90;;;;;;4991447;28;20269;-71
2023/12/12 01:56:06;;;;;;;6.72;1.75;;;31.90;99.90;;;;;;4991309;28;20384;-70
2023/12/12 01:58:36;;;;;;;7.40;1.90;;;32.30;99.90;;;;;;4991221;28;20197;-70
2023/12/12 02:01:04;;;;;;;7.22;2.00;;;32.80;99.90;;;;;;4958686;28;20257;-70
2023/12/12 02:03:33;;;;;;;8.02;1.60;;;33.60;99.90;;;;;;4991767;28;20203;-71
2023/12/12 02:06:02;;;;;;;6.35;1.58;;;33.90;99.90;;;;;;4991201;28;20178;-69
2023/12/12 02:08:30;;;;;;;12.13;1.88;;;34.10;99.90;;;;;;4993026;28;20193;-71
2023/12/12 02:10:57;;;;;;;5.55;1.35;;;34.30;99.90;;;;;;4977970;28;20193;-70
2023/12/12 02:13:25;;;;;;;10.60;2.10;;;34.70;99.90;;;;;;4995323;28;20174;-69
2023/12/12 02:15:53;;;;;;;6.00;1.70;;;35.10;99.90;;;;;;4995675;28;20222;-70
2023/12/12 02:18:20;;;;;;;7.03;1.98;;;34.80;98.10;;;;;;4995371;28;20174;-69
2023/12/12 02:20:47;;;;;;;7.25;1.90;;;34.00;98.90;;;;;;4995018;28;20186;-72
2023/12/12 02:23:14;;;;;;;10.32;2.30;;;34.30;99.90;;;;;;4995259;28;20560;-69
2023/12/12 02:25:43;;;;;;;6.25;1.63;;;34.70;99.90;;;;;;4995445;28;20178;-70
2023/12/12 02:28:12;;;;;;;10.07;1.92;;;34.70;99.90;;;;;;4994544;28;20182;-69
2023/12/12 02:30:42;;;;;;;10.18;1.48;;;34.00;99.90;;;;;;4995096;28;20263;-69
2023/12/12 02:33:09;;;;;;;4.53;1.20;;;33.60;99.90;;;;;;4994941;28;20187;-71
2023/12/12 02:35:37;;;;;;;7.10;1.50;;;33.70;99.90;;;;;;4994760;28;20633;-69
2023/12/12 02:38:04;;;;;;;4.50;1.33;;;33.90;96.60;;;;;;4994981;28;20171;-70
2023/12/12 02:40:32;;;;;;;6.97;1.58;;;33.60;99.90;;;;;;4995083;28;20229;-73
2023/12/12 02:42:59;;;;;;;10.73;1.88;;;33.50;99.90;;;;;;4994609;28;20170;-70
2023/12/12 02:45:26;;;;;;;5.18;1.63;;;33.60;98.00;;;;;;4994965;28;20218;-70
2023/12/12 02:47:54;;;;;;;6.60;1.45;;;33.30;98.10;;;;;;4994760;28;20202;-69
2023/12/12 02:50:21;;;;;;;6.03;1.30;;;33.50;99.90;;;;;;4994838;28;20561;-71
2023/12/12 02:52:48;;;;;;;13.68;2.53;;;33.60;99.90;;;;;;4995449;28;20174;-71
2023/12/12 02:55:16;;;;;;;6.00;1.55;;;33.60;99.90;;;;;;4995063;28;20695;-69
2023/12/12 02:57:43;;;;;;;11.60;1.48;;;33.70;98.00;;;;;;4994250;28;20302;-69
2023/12/12 03:00:11;;;;;;;9.63;1.42;;;34.40;99.90;;;;;;4994754;28;20179;-70
2023/12/12 03:02:38;;;;;;;10.45;1.38;;;34.10;98.80;;;;;;4994946;28;20179;-72
2023/12/12 03:05:06;;;;;;;7.32;1.85;;;33.80;99.70;;;;;;4993979;28;20723;-71
2023/12/12 03:07:33;;;;;;;7.18;1.50;;;34.30;95.20;;;;;;4994200;28;20182;-71
2023/12/12 03:10:00;;;;;;;6.47;1.38;;;34.20;98.10;;;;;;4993234;28;20193;-69
2023/12/12 03:12:28;;;;;;;7.25;1.60;;;33.90;97.20;;;;;;4993586;28;20187;-69
2023/12/12 03:14:55;;;;;;;7.65;1.70;;;34.60;98.50;;;;;;4994101;28;20179;-69
2023/12/12 03:17:22;;;;;;;7.70;1.92;;;34.90;95.50;;;;;;4993872;28;20218;-70
2023/12/12 03:19:50;;;;;;;7.32;1.67;;;34.80;95.30;;;;;;4992891;28;20185;-69
2023/12/12 03:22:18;;;;;;;5.57;1.65;;;34.70;91.30;;;;;;4993909;28;20703;-71
2023/12/12 03:24:45;;;;;;;9.38;1.35;;;34.90;92.70;;;;;;4994111;28;20214;-69
2023/12/12 03:27:12;;;;;;;7.95;1.25;;;34.50;93.70;;;;;;4993416;28;20260;-69
2023/12/12 03:29:40;;;;;;;6.00;1.48;;;34.60;94.40;;;;;;4976655;28;20985;-73
2023/12/12 03:32:07;;;;;;;4.47;1.48;;;34.80;90.30;;;;;;4993849;28;20328;-69
2023/12/12 03:34:34;;;;;;;6.00;1.67;;;34.60;93.20;;;;;;4993375;28;20198;-69
2023/12/12 03:37:02;;;;;;;6.60;1.15;;;34.70;90.20;;;;;;4976185;28;20194;-71
2023/12/12 03:39:29;;;;;;;10.93;2.05;;;34.60;86.20;;;;;;4993713;28;20227;-72
2023/12/12 03:41:56;;;;;;;5.43;1.45;;;33.90;88.50;;;;;;4993533;28;20213;-71
2023/12/12 03:44:24;;;;;;;9.43;1.83;;;33.50;93.50;;;;;;4993576;28;20264;-73
2023/12/12 03:46:51;;;;;;;6.40;1.20;;;33.40;92.20;;;;;;4993536;28;20179;-71
2023/12/12 03:49:18;;;;;;;9.75;1.75;;;33.50;91.80;;;;;;4993776;28;20190;-74
2023/12/12 03:51:45;;;;;;;8.32;1.52;;;33.70;94.40;;;;;;4994236;28;20206;-70
2023/12/12 03:54:13;;;;;;;9.63;1.98;;;33.80;92.00;;;;;;4993329;28;20190;-71
2023/12/12 03:56:40;;;;;;;6.75;1.50;;;33.40;94.50;;;;;;4975552;28;20198;-72
2023/12/12 03:59:07;;;;;;;6.13;1.55;;;33.60;94.20;;;;;;4993184;28;20652;-70
2023/12/12 04:01:35;;;;;;;6.18;1.40;;;33.80;94.60;;;;;;4993546;28;20205;-72
2023/12/12 04:04:02;;;;;;;7.43;1.90;;;33.80;93.90;;;;;;4992552;28;20206;-70
2023/12/12 04:06:29;;;;;;;10.02;1.50;;;34.20;92.10;;;;;;4992945;28;20194;-74
2023/12/12 04:08:57;;;;;;;6.95;1.55;;;34.60;90.90;;;;;;4993285;28;20241;-70
2023/12/12 04:11:24;;;;;;;5.97;1.58;;;33.90;94.10;;;;;;4993081;28;20647;-70
2023/12/12 04:13:51;;;;;;;7.07;1.67;;;33.40;94.40;;;;;;4993411;28;20599;-70
2023/12/12 04:16:18;;;;;;;4.35;1.33;;;33.60;95.50;;;;;;4993161;28;20191;-70
2023/12/12 04:18:46;;;;;;;11.25;1.60;;;33.90;93.30;;;;;;4974829;28;20675;-71
2023/12/12 04:21:13;;;;;;;6.68;1.58;;;34.00;90.60;;;;;;4993142;28;20190;-69
2023/12/12 04:23:42;;;;;;;8.23;1.77;;;33.90;91.90;;;;;;4993142;28;20210;-68
2023/12/12 04:26:10;;;;;;;6.50;1.20;;;33.90;95.90;;;;;;4992547;28;20198;-69
2023/12/12 04:28:38;;;;;;;13.25;1.88;;;33.60;92.70;;;;;;4992504;28;20233;-71
2023/12/12 04:31:05;;;;;;;3.45;1.20;;;33.90;94.60;;;;;;4992501;28;20237;-73
2023/12/12 04:33:33;;;;;;;7.55;1.67;;;33.60;94.30;;;;;;4975260;28;20206;-72
2023/12/12 04:36:01;;;;;;;7.05;1.50;;;33.20;95.10;;;;;;4992778;28;20217;-71
2023/12/12 04:38:33;;;;;;;4.50;1.23;;;33.10;93.30;;;;;;4992513;28;20210;-72
2023/12/12 04:41:04;;;;;;;5.43;1.40;;;32.40;95.60;;;;;;4992688;28;20237;-72
2023/12/12 04:43:31;;;;;;;11.48;1.80;;;32.30;96.00;;;;;;4993262;28;20202;-71
2023/12/12 04:45:58;;;;;;;6.05;1.23;;;32.50;97.80;;;;;;4992744;28;20201;-69
2023/12/12 04:48:27;;;;;;;6.97;1.95;;;32.80;94.60;;;;;;4991936;28;20592;-70
2023/12/12 04:50:54;;;;;;;5.68;1.42;;;32.50;97.60;;;;;;4992972;28;20193;-69
2023/12/12 04:53:21;;;;;;;4.65;1.40;;;32.50;96.50;;;;;;4992952;28;20585;-70
2023/12/12 04:55:50;;;;;;;8.13;1.83;;;32.40;96.90;;;;;;4992198;28;20233;-68
2023/12/12 04:58:18;;;;;;;4.50;1.30;;;32.60;95.60;;;;;;4973285;28;20179;-69
2023/12/12 05:00:46;;;;;;;6.05;1.50;;;32.50;95.50;;;;;;4987173;28;20186;-69
2023/12/12 05:03:13;;;;;;;5.43;1.40;;;32.30;96.20;;;;;;4992175;28;20233;-70
2023/12/12 05:05:41;;;;;;;7.90;2.03;;;32.50;96.30;;;;;;4992793;28;20173;-69
2023/12/12 05:08:09;;;;;;;5.22;1.45;;;32.80;97.20;;;;;;4992340;28;20222;-70
2023/12/12 05:10:36;;;;;;;7.28;1.50;;;32.60;96.10;;;;;;4992191;28;20273;-69
2023/12/12 05:13:04;;;;;;;6.93;1.70;;;32.50;94.60;;;;;;4992711;28;20694;-69
2023/12/12 05:15:32;;;;;;;7.53;1.27;;;32.40;94.90;;;;;;4975164;28;20199;-69
2023/12/12 05:18:00;;;;;;;4.97;1.55;;;32.80;97.20;;;;;;4991680;28;20213;-69
2023/12/12 05:20:28;;;;;;;6.30;1.33;;;33.40;93.60;;;;;;4992547;28;20206;-68
2023/12/12 05:22:56;;;;;;;5.53;1.52;;;33.20;90.70;;;;;;4992186;28;20182;-69
2023/12/12 05:25:24;;;;;;;4.22;1.10;;;33.10;91.60;;;;;;4992024;28;20719;-69
2023/12/12 05:27:51;;;;;;;7.85;1.25;;;33.20;88.10;;;;;;4992074;28;20723;-69
2023/12/12 05:30:19;;;;;;;5.32;0.98;;;33.60;90.00;;;;;;4992619;28;20187;-69
2023/12/12 05:32:47;;;;;;;5.97;1.73;;;33.00;90.80;;;;;;4974364;28;20183;-69
2023/12/12 05:35:15;;;;;;;8.82;1.27;;;32.90;93.90;;;;;;4992271;28;20187;-69
2023/12/12 05:37:42;;;;;;;8.30;1.20;;;32.90;94.90;;;;;;4991677;28;20183;-69
2023/12/12 05:40:14;;;;;;;3.33;1.00;;;32.90;90.20;;;;;;4991530;28;20174;-69
2023/12/12 05:42:43;;;;;;;4.28;1.27;;;32.60;91.80;;;;;;4991169;28;20183;-69
2023/12/12 05:45:11;;;;;;;5.63;1.48;;;32.40;92.60;;;;;;4992122;28;20229;-69
2023/12/12 05:47:40;;;;;;;7.55;1.30;;;32.30;95.00;;;;;;4991305;28;20306;-68
2023/12/12 05:50:10;;;;;;;6.72;1.73;;;32.10;96.30;;;;;;4974089;28;20285;-69
2023/12/12 05:52:38;;;;;;;5.10;1.40;;;32.20;98.20;;;;;;4991921;28;20186;-71
2023/12/12 05:55:06;;;;;;;5.63;1.33;;;32.20;98.80;;;;;;4973977;28;20238;-70
2023/12/12 05:57:34;;;;;;;6.50;1.70;;;32.00;99.90;;;;;;4991922;28;20195;-70
2023/12/12 06:00:05;;;;;;;6.88;1.42;;;32.10;99.90;;;;;;4992267;28;20560;-69
2023/12/12 06:02:33;;;;;;;5.38;1.55;;;31.70;98.60;;;;;;4988777;28;20198;-70
2023/12/12 06:05:03;;;;;;;7.57;1.35;;;31.40;99.10;;;;;;4992197;28;20305;-70
2023/12/12 06:07:35;;;;;;;4.68;1.48;;;31.50;99.90;;;;;;4992043;28;20272;-70
2023/12/12 06:10:04;;;;;;;6.35;1.42;;;31.60;99.90;;;;;;4974673;28;20175;-69
2023/12/12 06:12:32;;;;;;;5.80;1.20;;;31.60;99.90;;;;;;4991783;28;20551;-70
2023/12/12 06:15:00;;;;;;;6.28;1.75;;;31.60;99.50;;;;;;4992236;28;20179;-69
2023/12/12 06:17:31;;;;;;;12.95;2.10;;;31.60;99.80;;;;;;4992028;28;20233;-70
2023/12/12 06:19:58;;;;;;;6.18;2.00;;;31.60;99.70;;;;;;4991945;28;20182;-70
2023/12/12 06:22:26;;;;;;;7.70;1.52;;;31.50;99.90;;;;;;4992082;28;20295;-70
2023/12/12 06:24:54;;;;;;;5.57;1.25;;;31.20;99.90;;;;;;4991524;28;20789;-70
2023/12/12 06:27:22;;;;;;;4.03;0.90;;;30.80;99.90;;;;;;4992103;28;20179;-70
2023/12/12 06:29:50;;;;;;;12.03;1.97;;;30.90;99.90;;;;;;4992269;28;20185;-69
2023/12/12 06:32:18;;;;;;;6.87;1.47;;;31.00;99.90;;;;;;4991370;28;20183;-70
2023/12/12 06:34:46;;;;;;;5.03;1.13;;;30.80;99.90;;;;;;4991802;28;20213;-70
2023/12/12 06:37:14;;;;;;;6.53;1.40;;;31.00;99.90;;;;;;4991428;28;20197;-70
2023/12/12 06:39:41;;;;;;;10.18;1.83;;;30.90;99.90;;;;;;4991697;28;20245;-69
2023/12/12 06:42:09;;;;;;;8.30;1.73;;;30.90;99.90;;;;;;4991974;28;20178;-70
2023/12/12 06:44:37;;;;;;;8.83;1.23;;;30.80;99.90;;;;;;4991832;28;20214;-68
2023/12/12 06:47:05;;;;;;;5.47;1.40;;;30.60;99.90;;;;;;4991366;28;20636;-69
2023/12/12 06:49:32;;;;;;;5.68;1.20;;;30.40;99.90;;;;;;4974505;28;20201;-69
2023/12/12 06:52:01;;;;;;;6.23;1.43;;;30.40;99.90;;;;;;4991772;28;20764;-69
2023/12/12 06:54:29;;;;;;;5.50;1.70;;;30.20;99.90;;;;;;4992098;28;20601;-69
2023/12/12 06:56:57;;;;;;;7.97;1.57;;;30.10;99.90;;;;;;4995218;28;20202;-69
2023/12/12 06:59:25;;;;;;;8.87;2.03;;;30.00;99.90;;;;;;4993911;28;20575;-69
2023/12/12 07:01:53;;;;;;;7.90;1.53;;;30.00;99.90;;;;;;4994824;28;20174;-69
2023/12/12 07:04:21;;;;;;;5.20;1.53;;;29.90;99.90;;;;;;4994908;28;20222;-69
2023/12/12 07:06:49;;;;;;;5.87;1.30;;;29.60;99.90;;;;;;4994815;28;20187;-69
2023/12/12 07:09:16;;;;;;;5.63;1.53;;;29.40;99.90;;;;;;4994747;28;20183;-69
2023/12/12 07:11:44;;;;;;;6.60;1.60;;;29.30;99.90;;;;;;4995125;28;20552;-69
2023/12/12 07:14:12;;;;;;;7.40;1.60;;;29.10;99.90;;;;;;4994842;28;20213;-69
2023/12/12 07:16:40;;;;;;;6.17;1.60;;;29.10;99.90;;;;;;4994077;28;20191;-69
2023/12/12 07:19:07;;;;;;;4.33;1.23;;;29.00;99.90;;;;;;4995001;28;20361;-68
2023/12/12 07:24:57;;;;;;;6.10;1.50;;;28.60;99.90;;;;;;4993072;28;20265;-69
2023/12/12 07:27:25;;;;;;;7.57;1.77;;;28.60;99.90;;;;;;4994684;28;20225;-68
2023/12/12 07:29:53;;;;;;;9.13;1.67;;;28.60;99.90;;;;;;4994638;28;20183;-69
2023/12/12 07:32:21;;;;;;;3.70;1.13;;;28.90;99.90;;;;;;4994186;28;20266;-69
2023/12/12 07:34:51;;;;;;;10.97;1.50;;;29.20;99.90;;;;;;4994576;28;20540;-69
2023/12/12 07:37:19;;;;;;;7.60;1.53;;;29.20;99.90;;;;;;4994289;28;20182;-70
2023/12/12 07:39:47;;;;;;;6.47;1.53;;;28.80;99.90;;;;;;4993833;28;20198;-70
2023/12/12 07:42:15;;;;;;;7.23;1.60;;;28.60;99.90;;;;;;4994502;28;20183;-69
2023/12/12 07:44:43;;;;;;;9.80;2.07;;;28.50;99.90;;;;;;4993944;28;20651;-70
2023/12/12 07:47:10;;;;;;;8.90;1.53;;;28.40;99.90;;;;;;4993663;28;20191;-70
2023/12/12 07:49:38;;;;;;;7.67;1.83;;;28.20;99.90;;;;;;4994091;28;20181;-69
2023/12/12 07:52:06;;;;;;;10.37;1.67;;;28.10;99.90;;;;;;4976465;28;20234;-70
2023/12/12 07:54:34;;;;;;;7.97;1.60;;;28.00;99.90;;;;;;4993226;28;20597;-69
2023/12/12 07:57:02;;;;;;;8.40;2.20;;;27.90;99.90;;;;;;4979525;28;20214;-69
2023/12/12 07:59:30;;;;;;;8.13;1.77;;;27.90;99.90;;;;;;4991259;28;20198;-70
2023/12/12 08:01:59;;;;;;;7.07;1.43;;;27.70;99.90;;;;;;4994518;28;20313;-70
2023/12/12 08:04:27;;;;;;;10.73;1.77;;;27.60;99.90;;;;;;4994618;28;20218;-69
2023/12/12 08:06:56;;;;;;;4.87;1.50;;;27.40;99.90;;;;;;4995089;28;20182;-70
2023/12/12 08:09:24;;;;;;;7.73;1.73;;;27.40;99.90;;;;;;4995764;28;20182;-69
2023/12/12 08:11:52;;;;;;;9.00;1.97;;;27.50;99.90;;;;;;4995222;28;20202;-70
2023/12/12 08:14:20;;;;;;;9.00;1.70;;;27.40;99.90;;;;;;4977923;28;20190;-69
2023/12/12 08:16:48;;;;;;;6.63;1.40;;;27.10;99.90;;;;;;4995249;28;20185;-70
2023/12/12 08:19:16;;;;;;;9.23;2.73;;;26.80;99.90;;;;;;4995337;28;20182;-69
2023/12/12 08:21:44;;;;;;;6.83;1.57;;;26.50;99.90;;;;;;4995245;28;20183;-70
2023/12/12 08:24:12;;;;;;;10.47;2.10;;;26.50;99.90;;;;;;4995057;28;20210;-70
2023/12/12 08:26:46;;;;;;;7.60;1.63;;;26.40;99.90;;;;;;4995365;28;20649;-69
2023/12/12 08:29:15;;;;;;;6.90;1.37;;;26.50;99.90;;;;;;4995033;28;20679;-69
2023/12/12 08:31:43;;;;;;;6.30;1.80;;;26.30;99.90;;;;;;4994164;28;20186;-69
2023/12/12 08:34:11;;;;;;;5.50;1.47;;;26.30;99.90;;;;;;4994622;28;20257;-68
2023/12/12 08:36:40;;;;;;;6.57;1.87;;;26.20;99.90;;;;;;4977214;28;20188;-69
2023/12/12 08:39:07;;;;;;;7.57;1.60;;;26.10;99.90;;;;;;4977127;28;20198;-68
2023/12/12 08:41:38;;;;;;;9.57;1.50;;;26.00;99.90;;;;;;4994894;28;20178;-68
2023/12/12 08:44:06;;;;;;;9.83;1.87;;;25.90;99.90;;;;;;4994687;28;20210;-69
2023/12/12 08:46:35;;;;;;;9.70;1.67;;;25.80;99.90;;;;;;4995202;28;20194;-70
2023/12/12 08:49:03;;;;;;;6.20;1.70;;;25.80;99.90;;;;;;4994697;28;20190;-69
2023/12/12 08:51:32;;;;;;;13.93;1.47;;;25.60;99.90;;;;;;4994864;28;20699;-69
2023/12/12 08:54:02;;;;;;;8.63;1.97;;;25.50;99.90;;;;;;4994146;28;20217;-69
2023/12/12 08:56:30;;;;;;;9.63;1.63;;;25.40;99.90;;;;;;4961211;28;20235;-69
2023/12/12 08:58:58;;;;;;;10.67;2.53;;;25.40;99.90;;;;;;4994406;28;20181;-69
2023/12/12 09:01:25;;;;;;;12.00;1.90;;;25.30;99.90;;;;;;4994257;28;20664;-68
2023/12/12 09:03:53;;;;;;;9.07;1.80;;;25.20;99.90;;;;;;4994285;28;20206;-69
2023/12/12 09:06:21;;;;;;;7.60;2.17;;;25.10;99.90;;;;;;4994392;28;20179;-69
2023/12/12 09:08:49;;;;;;;7.67;1.57;;;25.00;99.90;;;;;;4994150;28;20568;-68
2023/12/12 09:11:17;;;;;;;5.63;1.67;;;25.00;99.90;;;;;;4994373;28;20186;-69
2023/12/12 09:13:45;;;;;;;7.80;2.30;;;24.90;99.90;;;;;;4976975;28;20258;-68
2023/12/12 09:16:13;;;;;;;12.43;2.33;;;24.90;99.90;;;;;;4994368;28;20193;-69
2023/12/12 09:18:40;;;;;;;12.33;2.00;;;24.80;99.90;;;;;;4993634;28;20632;-70
2023/12/12 09:21:08;;;;;;;10.40;1.97;;;24.80;99.90;;;;;;4976721;28;20210;-69
2023/12/12 09:23:40;;;;;;;8.73;1.47;;;24.70;99.90;;;;;;4993942;28;20190;-70
2023/12/12 09:26:18;;;;;;;8.00;1.97;;;24.80;99.90;;;;;;4994005;28;20595;-70
2023/12/12 09:28:47;;;;;;;6.67;1.80;;;24.70;99.90;;;;;;4994192;28;20193;-69
2023/12/12 09:31:14;;;;;;;8.10;2.37;;;24.60;99.90;;;;;;4993935;28;20189;-70
2023/12/12 09:33:46;;;;;;;8.97;1.93;;;24.60;99.90;;;;;;4993981;28;20183;-70
2023/12/12 09:36:13;;;;;;;13.90;2.30;;;24.60;99.90;;;;;;4993971;28;20181;-69
2023/12/12 09:38:41;;;;;;;5.70;2.00;;;24.60;99.90;;;;;;4993980;28;20194;-69
2023/12/12 09:41:22;;;;;;;6.27;1.83;;;24.60;99.90;;;;;;4993605;28;20191;-68
2023/12/12 09:43:51;;;;;;;8.23;1.73;;;24.50;99.90;;;;;;4993695;28;20344;-69
2023/12/12 09:46:20;;;;;;;9.43;1.90;;;24.40;99.90;;;;;;4976269;28;20194;-69
2023/12/12 09:48:52;;;;;;;9.40;1.63;;;24.40;99.90;;;;;;4993593;28;20244;-69
2023/12/12 09:51:20;;;;;;;5.40;1.77;;;24.40;99.90;;;;;;4976354;28;20187;-69
2023/12/12 09:53:48;;;;;;;6.90;2.00;;;24.40;99.90;;;;;;4994095;28;20184;-70
2023/12/12 09:56:17;;;;;;;7.07;2.10;;;24.40;99.90;;;;;;4993522;28;20233;-69
2023/12/12 09:58:49;;;;;;;9.00;2.10;;;24.30;99.90;;;;;;4993650;28;20194;-68
2023/12/12 10:01:17;;;;;;;9.97;1.70;;;24.20;99.90;;;;;;4993283;28;20190;-69
2023/12/12 10:03:46;;;;;;;5.70;1.47;;;24.20;99.90;;;;;;4993649;28;20667;-68
2023/12/12 10:06:17;;;;;;;7.30;1.97;;;24.20;99.90;;;;;;4993578;28;20183;-69
2023/12/12 10:08:45;;;;;;;5.50;1.37;;;24.10;99.90;;;;;;4993666;28;20640;-68
2023/12/12 10:11:14;;;;;;;6.43;1.53;;;24.10;99.90;;;;;;4993316;28;20201;-70
2023/12/12 10:13:54;;;;;;;9.23;1.97;;;24.20;99.90;;;;;;4993822;28;20245;-69
2023/12/12 10:16:25;;;;;;;5.97;1.90;;;24.20;99.90;;;;;;4993683;28;20644;-69
2023/12/12 10:18:52;;;;;;;8.30;1.87;;;24.10;99.90;;;;;;4993735;28;20189;-69
2023/12/12 10:21:22;;;;;;;7.40;1.70;;;24.10;99.90;;;;;;4993300;28;20636;-69
2023/12/12 10:23:54;;;;;;;4.90;1.70;;;24.10;99.90;;;;;;4993338;28;20222;-68
2023/12/12 10:26:32;;;;;;;8.07;1.63;;;24.00;99.90;;;;;;4993010;28;20186;-69
2023/12/12 10:29:03;;;;;;;11.07;2.23;;;23.90;99.90;;;;;;4994274;28;20175;-68
2023/12/12 10:31:31;;;;;;;9.60;1.97;;;23.90;99.90;;;;;;4997609;28;20178;-68
2023/12/12 10:33:59;;;;;;;10.53;2.83;;;23.90;99.90;;;;;;4997424;28;20182;-68
2023/12/12 10:36:27;;;;;;;7.87;3.60;;;24.00;99.90;;;;;;4979425;28;20236;-69
2023/12/12 10:38:55;;;;;;;10.77;4.40;;;24.00;99.90;;;;;;4997129;28;20240;-69
2023/12/12 10:41:23;;;;;;;9.77;3.30;;;24.00;99.90;;;;;;4979761;28;20186;-68
2023/12/12 10:47:15;;;;;;;7.37;1.73;;;23.80;99.90;;;;;;4996821;28;20214;-68
2023/12/12 10:50:16;;;;;;;9.20;1.67;;;23.80;99.90;;;;;;4996410;28;20558;-68
2023/12/12 10:52:47;;;;;;;8.07;1.30;;;23.70;99.90;;;;;;4979348;28;20666;-69
2023/12/12 10:55:16;;;;;;;11.87;1.97;;;23.70;99.90;;;;;;4996525;28;20234;-68
2023/12/12 10:57:45;;;;;;;10.33;2.10;;;23.70;99.90;;;;;;4996929;28;20193;-69
2023/12/12 11:00:15;;;;;;;7.43;1.67;;;23.70;99.90;;;;;;4996498;28;20198;-68
2023/12/12 11:02:44;;;;;;;5.63;1.50;;;23.60;99.90;;;;;;4979494;28;20583;-68
2023/12/12 11:05:16;;;;;;;4.10;1.50;;;23.70;99.90;;;;;;4980869;28;21042;-67
2023/12/12 11:07:48;;;;;;;6.63;1.67;;;23.70;99.90;;;;;;4987826;28;20194;-70
2023/12/12 11:10:19;;;;;;;12.13;2.37;;;23.60;99.90;;;;;;4977430;28;20194;-69
2023/12/12 11:12:57;;;;;;;9.27;2.07;;;23.60;99.90;;;;;;4994892;28;20182;-69
2023/12/12 11:15:25;;;;;;;10.10;1.57;;;23.50;99.90;;;;;;4994361;28;20193;-68
2023/12/12 11:17:54;;;;;;;10.30;2.20;;;23.50;99.90;;;;;;4994487;28;20285;-69
2023/12/12 11:20:22;;;;;;;8.33;1.97;;;23.50;99.90;;;;;;4994033;28;20179;-68
2023/12/12 11:22:52;;;;;;;9.27;1.93;;;23.40;99.90;;;;;;4994946;28;20214;-69
2023/12/12 11:25:21;;;;;;;7.57;1.50;;;23.40;99.90;;;;;;4994355;28;20218;-68
2023/12/12 11:27:54;;;;;;;6.70;1.43;;;23.40;99.90;;;;;;4991709;28;20182;-69
2023/12/12 11:30:37;;;;;;;7.93;1.80;;;23.40;99.90;;;;;;4994259;28;20179;-69
2023/12/12 11:33:07;;;;;;;10.07;2.23;;;23.40;99.90;;;;;;4994640;28;20221;-69
2023/12/12 11:35:35;;;;;;;3.83;1.33;;;23.30;99.90;;;;;;4993996;28;20543;-69
2023/12/12 11:38:27;;;;;;;12.03;2.10;;;23.30;99.90;;;;;;4994470;28;20260;-70
2023/12/12 11:41:16;;;;;;;6.47;1.90;;;23.40;99.90;;;;;;4993281;28;20194;-69
2023/12/12 11:43:45;;;;;;;6.27;1.80;;;23.40;99.90;;;;;;4993267;28;20211;-69
2023/12/12 11:46:23;;;;;;;11.03;1.80;;;23.30;99.90;;;;;;4994186;28;20194;-70
2023/12/12 11:48:51;;;;;;;11.70;1.67;;;23.30;99.90;;;;;;4993598;28;20189;-69
2023/12/12 11:51:47;;;;;;;8.00;1.70;;;23.20;99.90;;;;;;4975826;28;20644;-69
2023/12/12 11:54:24;;;;;;;7.87;1.97;;;23.10;99.90;;;;;;4993803;28;20290;-69
2023/12/12 11:57:00;;;;;;;7.70;1.97;;;23.10;99.90;;;;;;4993954;28;20182;-69
2023/12/12 11:59:29;;;;;;;6.87;1.50;;;23.00;99.90;;;;;;4992668;28;20186;-69
2023/12/12 12:01:57;;;;;;;7.50;2.77;;;23.00;99.90;;;;;;4993927;28;20248;-69
2023/12/12 12:04:26;;;;;;;6.70;1.67;;;22.90;99.90;;;;;;4993960;28;20224;-69
2023/12/12 12:06:53;;;;;;;6.70;1.60;;;22.80;99.90;;;;;;4993510;28;20339;-69
2023/12/12 12:09:21;;;;;;;7.23;1.83;;;22.80;99.90;;;;;;4993488;28;20186;-69
2023/12/12 12:11:52;;;;;;;6.50;1.50;;;22.80;99.90;;;;;;4993567;28;20193;-69
2023/12/12 12:14:24;;;;;;;6.30;1.87;;;22.70;99.90;;;;;;4994701;28;20194;-69
2023/12/12 12:16:58;;;;;;;6.57;1.70;;;22.70;99.90;;;;;;4995817;28;20182;-68
2023/12/12 12:19:29;;;;;;;10.67;1.40;;;22.70;99.90;;;;;;4995534;28;20191;-68
2023/12/12 12:22:04;;;;;;;8.13;1.73;;;22.70;99.90;;;;;;4995723;28;20547;-68
2023/12/12 12:24:33;;;;;;;7.17;1.90;;;22.70;99.90;;;;;;4995131;28;20293;-68
2023/12/12 12:27:01;;;;;;;8.37;1.90;;;22.80;99.90;;;;;;4994542;28;20558;-68
2023/12/12 12:29:31;;;;;;;7.80;2.17;;;22.90;99.90;;;;;;4993803;28;20188;-68
2023/12/12 12:32:14;;;;;;;8.03;1.60;;;22.90;99.90;;;;;;4994016;28;20281;-68
2023/12/12 12:34:41;;;;;;;10.27;1.80;;;22.90;99.90;;;;;;4994740;28;20214;-68
2023/12/12 12:37:32;;;;;;;6.03;1.97;;;23.00;99.90;;;;;;4993744;28;20183;-69
2023/12/12 12:40:04;;;;;;;6.20;1.70;;;22.80;99.90;;;;;;4994478;28;20556;-68
2023/12/12 12:42:41;;;;;;;9.13;1.80;;;22.80;99.90;;;;;;4994419;28;20187;-69
2023/12/12 12:45:09;;;;;;;7.63;1.93;;;22.70;99.90;;;;;;4995010;28;20209;-69
2023/12/12 12:47:38;;;;;;;8.93;1.90;;;22.60;99.90;;;;;;4994535;28;20244;-69
2023/12/12 12:50:06;;;;;;;7.60;1.87;;;22.60;99.90;;;;;;4994538;28;20193;-69
2023/12/12 12:52:34;;;;;;;7.43;2.40;;;22.50;99.90;;;;;;4994631;28;20181;-68
2023/12/12 12:55:01;;;;;;;14.17;2.47;;;22.50;99.90;;;;;;4994131;28;20241;-68
2023/12/12 12:57:29;;;;;;;6.30;1.40;;;22.50;99.90;;;;;;4994875;28;20209;-69
2023/12/12 12:59:57;;;;;;;8.37;2.20;;;22.40;99.90;;;;;;4994709;28;20178;-69